Time;durP1;ratioP1;P1;durP2;ratioP2;P2;SDS_P1;SDS_P2;PMS_P1;PMS_P2;Temp;Humidity;BMP_temperature;BMP_pressure;BME280_temperature;BME280_humidity;BME280_pressure;Samples;Min_cycle;Max_cycle;Signal;HPM_P1;HPM_P2
2022/06/23 00:00:34;;;;;;;;;;;;;;;;;;5056799;28;19996;-24
2022/06/23 00:03:00;;;;;;;;;;;;;;;;;;5055882;28;19923;-25
2022/06/23 00:05:27;;;;;;;;;;;;;;;;;;5056500;28;20236;-25
2022/06/23 00:07:54;;;;;;;;;;;;;;;;;;5055876;28;20003;-24
2022/06/23 00:10:22;;;;;;;;;;;;;;;;;;5055588;28;19996;-24
2022/06/23 00:12:49;;;;;;;;;;;;;;;;;;5056813;28;19913;-24
2022/06/23 00:15:15;;;;;;;;;;;;;;;;;;5057374;28;19927;-25
2022/06/23 00:17:42;;;;;;;;;;;;;;;;;;5056785;28;19944;-25
2022/06/23 00:20:09;;;;;;;;;;;;;;;;;;5057219;28;19913;-24
2022/06/23 00:22:36;;;;;;;;;;;;;;;;;;5055523;28;19913;-25
2022/06/23 00:25:03;;;;;;;;;;;;;;;;;;5055585;28;20252;-24
2022/06/23 00:27:30;;;;;;;;;;;;;;;;;;5056288;28;19948;-24
2022/06/23 00:29:57;;;;;;;;;;;;;;;;;;5055381;28;19924;-24
2022/06/23 00:32:26;;;;;;;;;;;;;;;;;;5055311;28;19919;-24
2022/06/23 00:34:52;;;;;;;;;;;;;;;;;;5055364;28;19916;-24
2022/06/23 00:37:19;;;;;;;;;;;;;;;;;;5056285;28;20318;-24
2022/06/23 00:39:47;;;;;;;;;;;;;;;;;;5057251;28;19913;-24
2022/06/23 00:42:14;;;;;;;;;;;;;;;;;;5056214;28;19921;-24
2022/06/23 00:44:41;;;;;;;;;;;;;;;;;;5056865;28;20055;-25
2022/06/23 00:47:09;;;;;;;;;;;;;;;;;;5057209;28;19913;-24
2022/06/23 00:49:35;;;;;;;;;;;;;;;;;;5058983;28;20046;-25
2022/06/23 00:52:02;;;;;;;;;;;;;;;;;;5060809;28;19924;-24
2022/06/23 00:54:29;;;;;;;;;;;;;;;;;;5060066;28;20320;-24
2022/06/23 00:56:56;;;;;;;;;;;;;;;;;;5060272;28;19987;-24
2022/06/23 00:59:23;;;;;;;;;;;;;;;;;;5060408;28;19913;-24
2022/06/23 01:01:49;;;;;;;;;;;;;;;;;;5059219;28;20011;-24
2022/06/23 01:04:17;;;;;;;;;;;;;;;;;;5059911;28;19916;-24
2022/06/23 01:06:44;;;;;;;;;;;;;;;;;;5059193;28;19908;-24
2022/06/23 01:09:11;;;;;;;;;;;;;;;;;;5058961;28;19996;-24
2022/06/23 01:11:38;;;;;;;;;;;;;;;;;;5059799;28;19955;-25
2022/06/23 01:14:06;;;;;;;;;;;;;;;;;;5059340;28;19921;-24
2022/06/23 01:16:34;;;;;;;;;;;;;;;;;;5059995;28;20216;-24
2022/06/23 01:19:01;;;;;;;;;;;;;;;;;;5058914;28;19923;-24
2022/06/23 01:21:27;;;;;;;;;;;;;;;;;;5060002;28;20022;-24
2022/06/23 01:23:54;;;;;;;;;;;;;;;;;;5058725;28;20004;-25
2022/06/23 01:26:21;;;;;;;;;;;;;;;;;;5059742;28;19913;-24
2022/06/23 01:28:48;;;;;;;;;;;;;;;;;;5058819;28;19912;-24
2022/06/23 01:31:15;;;;;;;;;;;;;;;;;;5059787;28;19924;-24
2022/06/23 01:33:42;;;;;;;;;;;;;;;;;;5058486;28;19909;-24
2022/06/23 01:36:08;;;;;;;;;;;;;;;;;;5058418;28;20318;-24
2022/06/23 01:38:36;;;;;;;;;;;;;;;;;;5059517;28;19913;-24
2022/06/23 01:41:02;;;;;;;;;;;;;;;;;;5059713;28;19952;-24
2022/06/23 01:43:30;;;;;;;;;;;;;;;;;;5059324;28;19928;-24
2022/06/23 01:45:57;;;;;;;;;;;;;;;;;;5059230;28;19966;-24
2022/06/23 01:51:09;;;;;;;;;;;;;;;;;;5059363;28;19973;-24
2022/06/23 01:53:35;;;;;;;;;;;;;;;;;;5059220;28;19916;-24
2022/06/23 01:56:03;;;;;;;;;;;;;;;;;;5059211;28;20232;-25
2022/06/23 01:58:29;;;;;;;;;;;;;;;;;;5058527;28;20014;-24
2022/06/23 02:00:56;;;;;;;;;;;;;;;;;;5058528;28;19920;-24
2022/06/23 02:03:23;;;;;;;;;;;;;;;;;;5059524;28;19913;-24
2022/06/23 02:06:13;;;;;;;;;;;;;;;;;;5058908;28;19999;-25
2022/06/23 02:11:23;;;;;;;;;;;;;;;;;;5058809;28;19923;-31
2022/06/23 02:13:59;;;;;;;;;;;;;;;;;;5059931;28;19952;-24
2022/06/23 02:16:26;;;;;;;;;;;;;;;;;;5058432;28;19924;-24
2022/06/23 02:21:44;;;;;;;;;;;;;;;;;;5060157;28;20003;-24
2022/06/23 02:27:03;;;;;;;;;;;;;;;;;;5059518;28;19947;-24
2022/06/23 02:29:36;;;;;;;;;;;;;;;;;;5057819;28;20314;-24
2022/06/23 02:43:25;;;;;;;;;;;;;;;;;;5395192;22;19925;-24
2022/06/23 02:45:52;;;;;;;;;;;;;;;;;;5038515;28;20267;-24
2022/06/23 02:48:19;;;;;;;;;;;;;;;;;;5020910;28;19939;-25
2022/06/23 02:50:46;;;;;;;;;;;;;;;;;;5020594;28;20259;-25
2022/06/23 02:53:13;;;;;;;;;;;;;;;;;;5038380;28;20263;-25
2022/06/23 02:55:40;;;;;;;;;;;;;;;;;;5038220;28;19913;-24
2022/06/23 02:58:06;;;;;;;;;;;;;;;;;;5038020;28;19917;-24
2022/06/23 03:00:33;;;;;;;;;;;;;;;;;;5038432;28;19920;-25
2022/06/23 03:03:01;;;;;;;;;;;;;;;;;;5037532;28;20271;-24
2022/06/23 03:05:28;;;;;;;;;;;;;;;;;;5038120;28;19964;-24
2022/06/23 03:07:54;;;;;;;;;;;;;;;;;;5038189;28;19971;-24
2022/06/23 03:10:21;;;;;;;;;;;;;;;;;;5038179;28;19923;-24
2022/06/23 03:12:47;;;;;;;;;;;;;;;;;;5038294;28;20043;-25
2022/06/23 03:15:14;;;;;;;;;;;;;;;;;;5038058;28;19959;-24
2022/06/23 03:17:41;;;;;;;;;;;;;;;;;;5036865;28;20337;-25
2022/06/23 03:20:08;;;;;;;;;;;;;;;;;;5036600;28;19940;-25
2022/06/23 03:22:34;;;;;;;;;;;;;;;;;;5037510;28;19924;-24
2022/06/23 03:25:01;;;;;;;;;;;;;;;;;;5037786;28;19944;-24
2022/06/23 03:27:28;;;;;;;;;;;;;;;;;;5037820;28;19913;-24
2022/06/23 03:29:55;;;;;;;;;;;;;;;;;;5037492;28;19913;-24
2022/06/23 03:32:23;;;;;;;;;;;;;;;;;;5037274;28;19913;-24
2022/06/23 03:34:49;;;;;;;;;;;;;;;;;;5036589;28;19980;-24
2022/06/23 03:37:16;;;;;;;;;;;;;;;;;;5036632;28;19924;-24
2022/06/23 03:42:28;;;;;;;;;;;;;;;;;;5037304;28;19924;-24
2022/06/23 03:44:55;;;;;;;;;;;;;;;;;;5037425;28;19949;-24
2022/06/23 03:47:22;;;;;;;;;;;;;;;;;;5037563;28;19913;-24
2022/06/23 03:49:49;;;;;;;;;;;;;;;;;;5037408;28;19917;-24
2022/06/23 03:52:17;;;;;;;;;;;;;;;;;;5036496;28;20241;-24
2022/06/23 03:54:44;;;;;;;;;;;;;;;;;;5036878;28;19924;-24
2022/06/23 03:57:11;;;;;;;;;;;;;;;;;;5037215;28;19980;-24
2022/06/23 03:59:38;;;;;;;;;;;;;;;;;;5035702;28;20007;-24
2022/06/23 04:04:39;;;;;;;;;;;;;;;;;;5016190;28;19984;-24
2022/06/23 04:07:06;;;;;;;;;;;;;;;;;;5017137;28;19913;-24
2022/06/23 04:09:32;;;;;;;;;;;;;;;;;;5032551;28;20303;-23
2022/06/23 04:12:00;;;;;;;;;;;;;;;;;;5016734;28;19917;-24
2022/06/23 04:14:28;;;;;;;;;;;;;;;;;;5017025;28;19929;-24
2022/06/23 04:16:55;;;;;;;;;;;;;;;;;;5017099;28;19939;-24
2022/06/23 04:19:23;;;;;;;;;;;;;;;;;;5015920;28;19909;-24
2022/06/23 04:21:58;;;;;;;;;;;;;;;;;;5016328;28;19926;-24
2022/06/23 04:24:26;;;;;;;;;;;;;;;;;;5021203;28;19918;-24
2022/06/23 04:26:54;;;;;;;;;;;;;;;;;;5020816;28;20340;-24
2022/06/23 04:29:21;;;;;;;;;;;;;;;;;;5019461;28;19914;-24
2022/06/23 04:31:48;;;;;;;;;;;;;;;;;;5019366;28;20303;-24
2022/06/23 04:34:15;;;;;;;;;;;;;;;;;;5020642;28;19913;-24
2022/06/23 04:36:42;;;;;;;;;;;;;;;;;;5019655;28;20403;-24
2022/06/23 04:39:09;;;;;;;;;;;;;;;;;;5019224;28;19916;-24
2022/06/23 04:41:36;;;;;;;;;;;;;;;;;;5018998;28;19971;-24
2022/06/23 04:44:05;;;;;;;;;;;;;;;;;;5020202;28;20309;-24
2022/06/23 04:46:32;;;;;;;;;;;;;;;;;;5019574;28;20000;-24
2022/06/23 04:48:58;;;;;;;;;;;;;;;;;;5020636;28;19945;-24
2022/06/23 04:51:25;;;;;;;;;;;;;;;;;;5019350;28;19913;-24
2022/06/23 04:56:39;;;;;;;;;;;;;;;;;;5020286;28;19952;-24
2022/06/23 04:59:06;;;;;;;;;;;;;;;;;;5021213;28;19914;-24
2022/06/23 05:01:33;;;;;;;;;;;;;;;;;;5020487;28;19972;-24
2022/06/23 05:04:01;;;;;;;;;;;;;;;;;;5043949;28;20000;-24
2022/06/23 05:06:27;;;;;;;;;;;;;;;;;;5056416;28;19925;-24
2022/06/23 05:14:36;;;;;;;;;;;;;;;;;;5040075;28;19920;-24
2022/06/23 05:17:04;;;;;;;;;;;;;;;;;;5039830;28;19940;-24
2022/06/23 05:19:33;;;;;;;;;;;;;;;;;;5039659;28;19917;-24
2022/06/23 05:22:02;;;;;;;;;;;;;;;;;;5039383;28;19924;-24
2022/06/23 05:24:29;;;;;;;;;;;;;;;;;;5039849;28;19935;-23
2022/06/23 05:26:55;;;;;;;;;;;;;;;;;;5039485;28;19909;-24
2022/06/23 05:29:23;;;;;;;;;;;;;;;;;;5039684;28;19909;-24
2022/06/23 05:32:01;;;;;;;;;;;;;;;;;;5053413;28;20218;-24
2022/06/23 05:34:29;;;;;;;;;;;;;;;;;;5054918;28;19924;-24
2022/06/23 05:37:00;;;;;;;;;;;;;;;;;;5054637;28;19909;-24
2022/06/23 05:39:29;;;;;;;;;;;;;;;;;;5039374;28;19914;-25
2022/06/23 05:42:02;;;;;;;;;;;;;;;;;;5054796;28;19920;-24
2022/06/23 05:44:28;;;;;;;;;;;;;;;;;;5054201;28;20240;-24
2022/06/23 05:46:56;;;;;;;;;;;;;;;;;;5054857;28;19905;-24
2022/06/23 05:49:22;;;;;;;;;;;;;;;;;;5040325;28;20174;-24
2022/06/23 05:51:50;;;;;;;;;;;;;;;;;;5039325;28;20340;-24
2022/06/23 05:54:17;;;;;;;;;;;;;;;;;;5054964;28;19917;-25
2022/06/23 05:56:45;;;;;;;;;;;;;;;;;;5039307;28;19913;-25
2022/06/23 05:59:16;;;;;;;;;;;;;;;;;;5054376;28;19981;-24
2022/06/23 06:01:46;;;;;;;;;;;;;;;;;;5038816;28;19977;-24
2022/06/23 06:04:14;;;;;;;;;;;;;;;;;;5023580;28;20268;-25
2022/06/23 06:06:42;;;;;;;;;;;;;;;;;;5018878;28;19921;-24
2022/06/23 06:11:55;;;;;;;;;;;;;;;;;;5018431;28;19928;-24
2022/06/23 06:14:23;;;;;;;;;;;;;;;;;;5016797;28;19910;-24
2022/06/23 06:16:52;;;;;;;;;;;;;;;;;;5017850;28;19913;-24
2022/06/23 06:19:20;;;;;;;;;;;;;;;;;;5016949;28;19914;-24
2022/06/23 06:21:48;;;;;;;;;;;;;;;;;;5017802;28;19914;-24
2022/06/23 06:24:17;;;;;;;;;;;;;;;;;;5017840;28;19920;-24
2022/06/23 06:26:45;;;;;;;;;;;;;;;;;;5016729;28;19975;-24
2022/06/23 06:29:13;;;;;;;;;;;;;;;;;;5017868;28;19911;-24
2022/06/23 06:31:41;;;;;;;;;;;;;;;;;;5017557;28;19918;-24
2022/06/23 06:34:11;;;;;;;;;;;;;;;;;;5016417;28;20356;-24
2022/06/23 06:36:40;;;;;;;;;;;;;;;;;;5017985;28;20251;-24
2022/06/23 06:39:08;;;;;;;;;;;;;;;;;;5016893;28;20300;-24
2022/06/23 06:41:35;;;;;;;;;;;;;;;;;;5017615;28;19913;-25
2022/06/23 06:44:02;;;;;;;;;;;;;;;;;;5018046;28;19909;-23
2022/06/23 06:46:30;;;;;;;;;;;;;;;;;;5017720;28;19910;-23
2022/06/23 06:48:57;;;;;;;;;;;;;;;;;;5018266;28;19913;-23
2022/06/23 06:51:24;;;;;;;;;;;;;;;;;;5017629;28;19917;-23
2022/06/23 06:53:51;;;;;;;;;;;;;;;;;;5017792;28;19909;-23
2022/06/23 06:56:19;;;;;;;;;;;;;;;;;;5017807;28;19924;-23
2022/06/23 06:58:47;;;;;;;;;;;;;;;;;;5017865;28;19918;-23
2022/06/23 07:01:16;;;;;;;;;;;;;;;;;;5017320;28;20005;-23
2022/06/23 07:03:44;;;;;;;;;;;;;;;;;;5017861;28;20004;-25
2022/06/23 07:06:11;;;;;;;;;;;;;;;;;;5016942;28;20312;-25
2022/06/23 07:08:38;;;;;;;;;;;;;;;;;;5019245;28;20285;-25
2022/06/23 07:11:06;;;;;;;;;;;;;;;;;;5017016;28;20225;-25
2022/06/23 07:13:33;;;;;;;;;;;;;;;;;;5017331;28;19971;-26
2022/06/23 07:16:02;;;;;;;;;;;;;;;;;;5017375;28;19910;-25
2022/06/23 07:18:29;;;;;;;;;;;;;;;;;;5016396;28;19968;-25
2022/06/23 07:21:01;;;;;;;;;;;;;;;;;;5016042;28;19924;-25
2022/06/23 07:23:31;;;;;;;;;;;;;;;;;;5017812;28;19926;-25
2022/06/23 07:26:02;;;;;;;;;;;;;;;;;;5018376;28;19921;-24
2022/06/23 07:28:31;;;;;;;;;;;;;;;;;;5017683;28;19921;-25
2022/06/23 07:31:06;;;;;;;;;;;;;;;;;;5017052;28;19924;-24
2022/06/23 07:33:44;;;;;;;;;;;;;;;;;;5019565;28;20233;-25
2022/06/23 07:36:15;;;;;;;;;;;;;;;;;;5021644;28;19932;-25
2022/06/23 07:50:07;;;;;;;;;;;;;;;;;;5054110;28;20074;-21
2022/06/23 07:55:28;;;;;;;;;;;;;;;;;;5038608;28;19974;-28
2022/06/23 07:57:56;;;;;;;;;;;;;;;;;;5018408;28;19929;-20
2022/06/23 08:00:25;;;;;;;;;;;;;;;;;;5036041;28;20004;-21
2022/06/23 08:05:43;;;;;;;;;;;;;;;;;;5038146;28;19923;-20
2022/06/23 08:08:10;;;;;;;;;;;;;;;;;;5035464;28;20259;-20
2022/06/23 08:10:38;;;;;;;;;;;;;;;;;;5036726;28;20007;-21
2022/06/23 08:13:05;;;;;;;;;;;;;;;;;;5036991;28;19913;-21
2022/06/23 08:18:19;;;;;;;;;;;;;;;;;;5036963;28;20409;-20
2022/06/23 08:20:48;;;;;;;;;;;;;;;;;;5035984;28;19939;-19
2022/06/23 08:23:16;;;;;;;;;;;;;;;;;;5036852;28;19914;-20
2022/06/23 08:25:44;;;;;;;;;;;;;;;;;;5035784;28;19974;-19
2022/06/23 08:28:12;;;;;;;;;;;;;;;;;;5037658;28;19947;-21
2022/06/23 08:30:39;;;;;;;;;;;;;;;;;;5036810;28;19917;-20
2022/06/23 08:33:07;;;;;;;;;;;;;;;;;;5037142;28;20004;-20
2022/06/23 08:35:36;;;;;;;;;;;;;;;;;;5038209;28;19913;-21
2022/06/23 08:38:04;;;;;;;;;;;;;;;;;;5036074;28;19917;-20
2022/06/23 08:40:35;;;;;;;;;;;;;;;;;;5036751;28;19917;-21
2022/06/23 08:43:03;;;;;;;;;;;;;;;;;;5035406;28;19910;-21
2022/06/23 08:45:30;;;;;;;;;;;;;;;;;;5036742;28;19970;-20
2022/06/23 08:47:58;;;;;;;;;;;;;;;;;;5036352;28;19920;-20
2022/06/23 08:50:25;;;;;;;;;;;;;;;;;;5036250;28;19917;-22
2022/06/23 08:52:55;;;;;;;;;;;;;;;;;;5036292;28;19909;-20
2022/06/23 09:01:07;;;;;;;;;;;;;;;;;;5036968;28;19967;-22
2022/06/23 09:03:40;;;;;;;;;;;;;;;;;;5037115;28;19913;-22
2022/06/23 09:06:07;;;;;;;;;;;;;;;;;;5034884;28;19963;-22
2022/06/23 09:08:35;;;;;;;;;;;;;;;;;;5036191;28;19910;-22
2022/06/23 09:11:03;;;;;;;;;;;;;;;;;;5039536;28;20275;-21
2022/06/23 09:13:36;;;;;;;;;;;;;;;;;;5040042;28;19924;-22
2022/06/23 09:18:56;;;;;;;;;;;;;;;;;;5041348;28;19931;-22
2022/06/23 09:21:23;;;;;;;;;;;;;;;;;;5040409;28;19913;-21
2022/06/23 09:23:58;;;;;;;;;;;;;;;;;;5037154;28;19992;-22
2022/06/23 09:26:26;;;;;;;;;;;;;;;;;;5040324;28;20247;-22
2022/06/23 09:28:54;;;;;;;;;;;;;;;;;;5039824;28;20026;-22
2022/06/23 09:31:26;;;;;;;;;;;;;;;;;;5038553;28;19948;-22
2022/06/23 09:36:48;;;;;;;;;;;;;;;;;;5040176;28;19924;-22
2022/06/23 09:39:16;;;;;;;;;;;;;;;;;;5040106;28;19913;-21
2022/06/23 09:41:44;;;;;;;;;;;;;;;;;;5039407;28;20007;-22
2022/06/23 09:44:12;;;;;;;;;;;;;;;;;;5038244;28;19917;-21
2022/06/23 09:46:42;;;;;;;;;;;;;;;;;;5038529;28;19917;-21
2022/06/23 09:52:08;;;;;;;;;;;;;;;;;;5039269;28;19928;-22
2022/06/23 10:03:09;;;;;;;;;;;;;;;;;;5039879;28;20436;-19
2022/06/23 10:05:37;;;;;;;;;;;;;;;;;;5039133;28;19913;-21
2022/06/23 10:08:07;;;;;;;;;;;;;;;;;;5037057;28;19917;-20
2022/06/23 10:10:37;;;;;;;;;;;;;;;;;;5036641;28;19928;-20
2022/06/23 10:13:17;;;;;;;;;;;;;;;;;;5035556;28;19913;-19
2022/06/23 10:15:44;;;;;;;;;;;;;;;;;;5036335;28;19932;-20
2022/06/23 10:18:10;;;;;;;;;;;;;;;;;;5036445;28;20012;-20
2022/06/23 10:23:43;;;;;;;;;;;;;;;;;;5036590;28;20027;-21
2022/06/23 10:29:10;;;;;;;;;;;;;;;;;;5036370;28;19998;-22
2022/06/23 10:31:44;;;;;;;;;;;;;;;;;;5038833;28;19925;-21
2022/06/23 10:34:14;;;;;;;;;;;;;;;;;;5039961;28;20231;-21
2022/06/23 10:36:43;;;;;;;;;;;;;;;;;;5038863;28;19909;-20
2022/06/23 10:39:16;;;;;;;;;;;;;;;;;;5038462;28;19913;-20
2022/06/23 10:41:44;;;;;;;;;;;;;;;;;;5038271;28;19913;-20
2022/06/23 10:44:12;;;;;;;;;;;;;;;;;;5038304;28;19909;-20
2022/06/23 10:46:39;;;;;;;;;;;;;;;;;;5038733;28;19913;-21
2022/06/23 10:49:11;;;;;;;;;;;;;;;;;;5038568;28;20264;-21
2022/06/23 10:57:14;;;;;;;;;;;;;;;;;;5039402;28;19916;-20
2022/06/23 10:59:58;;;;;;;;;;;;;;;;;;5036425;28;19913;-20
2022/06/23 11:02:25;;;;;;;;;;;;;;;;;;5051953;28;20384;-19
2022/06/23 11:04:53;;;;;;;;;;;;;;;;;;5035918;28;19913;-21
2022/06/23 11:07:20;;;;;;;;;;;;;;;;;;5035830;28;20216;-20
2022/06/23 11:12:41;;;;;;;;;;;;;;;;;;5037254;28;20394;-21
2022/06/23 11:23:42;;;;;;;;;;;;;;;;;;5037903;28;20338;-21
2022/06/23 11:26:11;;;;;;;;;;;;;;;;;;5052829;28;20405;-21
2022/06/23 11:28:38;;;;;;;;;;;;;;;;;;5053418;28;19996;-21
2022/06/23 11:36:47;;;;;;;;;;;;;;;;;;5038674;28;19978;-20
2022/06/23 11:39:15;;;;;;;;;;;;;;;;;;5037625;28;19913;-20
2022/06/23 11:41:57;;;;;;;;;;;;;;;;;;5037842;28;19924;-20
2022/06/23 11:44:28;;;;;;;;;;;;;;;;;;5038281;28;19909;-21
2022/06/23 11:46:55;;;;;;;;;;;;;;;;;;5052546;28;20259;-20
2022/06/23 11:52:27;;;;;;;;;;;;;;;;;;5037402;28;20039;-19
2022/06/23 11:54:59;;;;;;;;;;;;;;;;;;5037200;28;19917;-20
2022/06/23 11:57:26;;;;;;;;;;;;;;;;;;5036976;28;19909;-19
2022/06/23 11:59:54;;;;;;;;;;;;;;;;;;5035634;28;20320;-20
2022/06/23 12:02:21;;;;;;;;;;;;;;;;;;5035969;28;20292;-20
2022/06/23 12:04:49;;;;;;;;;;;;;;;;;;5035487;28;20248;-20
2022/06/23 12:07:16;;;;;;;;;;;;;;;;;;5036584;28;19909;-20
2022/06/23 12:09:44;;;;;;;;;;;;;;;;;;5036780;28;20241;-20
2022/06/23 12:12:11;;;;;;;;;;;;;;;;;;5035964;28;19924;-20
2022/06/23 12:14:40;;;;;;;;;;;;;;;;;;5036567;28;19928;-19
2022/06/23 12:17:09;;;;;;;;;;;;;;;;;;5037307;28;19916;-20
2022/06/23 12:19:36;;;;;;;;;;;;;;;;;;5036823;28;19944;-20
2022/06/23 12:22:03;;;;;;;;;;;;;;;;;;5036030;28;19913;-20
2022/06/23 12:24:32;;;;;;;;;;;;;;;;;;5037364;28;20283;-19
2022/06/23 12:26:59;;;;;;;;;;;;;;;;;;5036907;28;19913;-20
2022/06/23 12:29:28;;;;;;;;;;;;;;;;;;5036128;28;19963;-24
2022/06/23 12:31:56;;;;;;;;;;;;;;;;;;5035555;28;19917;-21
2022/06/23 12:34:27;;;;;;;;;;;;;;;;;;5036922;28;19913;-20
2022/06/23 12:36:54;;;;;;;;;;;;;;;;;;5035379;28;19925;-19
2022/06/23 12:39:22;;;;;;;;;;;;;;;;;;5035471;28;19913;-20
2022/06/23 12:41:49;;;;;;;;;;;;;;;;;;5036753;28;19924;-19
2022/06/23 12:44:18;;;;;;;;;;;;;;;;;;5037661;28;20363;-19
2022/06/23 12:46:45;;;;;;;;;;;;;;;;;;5041796;28;19924;-20
2022/06/23 12:49:19;;;;;;;;;;;;;;;;;;5040863;28;20324;-20
2022/06/23 12:51:49;;;;;;;;;;;;;;;;;;5039849;28;19917;-19
2022/06/23 12:54:21;;;;;;;;;;;;;;;;;;5039906;28;19971;-20
2022/06/23 12:56:50;;;;;;;;;;;;;;;;;;5039915;28;19917;-20
2022/06/23 12:59:29;;;;;;;;;;;;;;;;;;5038448;28;19917;-20
2022/06/23 13:01:57;;;;;;;;;;;;;;;;;;5040094;28;20008;-20
2022/06/23 13:04:26;;;;;;;;;;;;;;;;;;5039762;28;19932;-20
2022/06/23 13:06:54;;;;;;;;;;;;;;;;;;5040370;28;19975;-20
2022/06/23 13:09:23;;;;;;;;;;;;;;;;;;5040543;28;19928;-20
2022/06/23 13:12:06;;;;;;;;;;;;;;;;;;5039286;28;19921;-21
2022/06/23 13:17:26;;;;;;;;;;;;;;;;;;5039690;28;20311;-20
2022/06/23 13:19:56;;;;;;;;;;;;;;;;;;5038505;28;19913;-19
2022/06/23 13:25:14;;;;;;;;;;;;;;;;;;5039051;28;20313;-20
2022/06/23 13:30:31;;;;;;;;;;;;;;;;;;5039498;28;19924;-20
2022/06/23 13:32:59;;;;;;;;;;;;;;;;;;5039371;28;19921;-20
2022/06/23 13:35:27;;;;;;;;;;;;;;;;;;5039542;28;19980;-20
2022/06/23 13:37:56;;;;;;;;;;;;;;;;;;5038600;28;19932;-20
2022/06/23 13:40:24;;;;;;;;;;;;;;;;;;5039753;28;19914;-20
2022/06/23 13:42:51;;;;;;;;;;;;;;;;;;5038215;28;19913;-21
2022/06/23 13:45:19;;;;;;;;;;;;;;;;;;5039301;28;19917;-20
2022/06/23 13:47:47;;;;;;;;;;;;;;;;;;5038000;28;19913;-19
2022/06/23 13:50:14;;;;;;;;;;;;;;;;;;5038740;28;19917;-20
2022/06/23 13:52:41;;;;;;;;;;;;;;;;;;5038873;28;19924;-20
2022/06/23 13:55:08;;;;;;;;;;;;;;;;;;5036961;28;19970;-20
2022/06/23 13:57:36;;;;;;;;;;;;;;;;;;5038353;28;19913;-19
2022/06/23 14:00:04;;;;;;;;;;;;;;;;;;5039040;28;20324;-20
2022/06/23 14:02:31;;;;;;;;;;;;;;;;;;5039185;28;19968;-20
2022/06/23 14:05:00;;;;;;;;;;;;;;;;;;5038327;28;19917;-20
2022/06/23 14:07:27;;;;;;;;;;;;;;;;;;5038308;28;19913;-20
2022/06/23 14:09:55;;;;;;;;;;;;;;;;;;5037354;28;19909;-20
2022/06/23 14:12:22;;;;;;;;;;;;;;;;;;5037878;28;20313;-20
2022/06/23 14:14:50;;;;;;;;;;;;;;;;;;5039396;28;19913;-21
2022/06/23 14:17:19;;;;;;;;;;;;;;;;;;5038782;28;19975;-21
2022/06/23 14:19:46;;;;;;;;;;;;;;;;;;5038513;28;19909;-21
2022/06/23 14:22:13;;;;;;;;;;;;;;;;;;5038285;28;19978;-22
2022/06/23 14:24:40;;;;;;;;;;;;;;;;;;5038871;28;19909;-21
2022/06/23 14:27:08;;;;;;;;;;;;;;;;;;5037214;28;20356;-21
2022/06/23 14:43:29;;;;;;;;;;;;;;;;;;5343038;23;19925;-23
2022/06/23 14:48:51;;;;;;;;;;;;;;;;;;5045099;28;19920;-26
2022/06/23 14:51:26;;;;;;;;;;;;;;;;;;5042979;28;19917;-26
2022/06/23 14:53:54;;;;;;;;;;;;;;;;;;5041904;28;19963;-25
2022/06/23 14:59:12;;;;;;;;;;;;;;;;;;5043266;28;19940;-24
2022/06/23 15:01:51;;;;;;;;;;;;;;;;;;5040934;28;19913;-24
2022/06/23 15:04:22;;;;;;;;;;;;;;;;;;5039463;28;19920;-24
2022/06/23 15:06:50;;;;;;;;;;;;;;;;;;5038565;28;20374;-25
2022/06/23 15:09:19;;;;;;;;;;;;;;;;;;5039822;28;19921;-26
2022/06/23 15:14:30;;;;;;;;;;;;;;;;;;4777988;26;19952;-24
2022/06/23 15:16:59;;;;;;;;;;;;;;;;;;5061354;28;19917;-23
2022/06/23 15:19:27;;;;;;;;;;;;;;;;;;5045303;28;19908;-23
2022/06/23 15:38:47;;;;;;;;;;;;;;;;;;5084055;23;19929;-24
2022/06/23 15:41:20;;;;;;;;;;;;;;;;;;5038503;28;20300;-24
2022/06/23 15:46:44;;;;;;;;;;;;;;;;;;5039211;28;19923;-24
2022/06/23 15:52:06;;;;;;;;;;;;;;;;;;5018693;28;19940;-25
2022/06/23 15:54:37;;;;;;;;;;;;;;;;;;5018507;28;19917;-24
2022/06/23 16:14:11;;;;;;;;;;;;;;;;;;5106954;23;19925;-23
2022/06/23 16:16:39;;;;;;;;;;;;;;;;;;5038197;28;19935;-22
2022/06/23 16:19:08;;;;;;;;;;;;;;;;;;5036968;28;19936;-23
2022/06/23 16:21:35;;;;;;;;;;;;;;;;;;5038111;28;19925;-23
2022/06/23 16:24:03;;;;;;;;;;;;;;;;;;5016008;28;19905;-26
2022/06/23 16:26:30;;;;;;;;;;;;;;;;;;5016941;28;19921;-25
2022/06/23 16:28:58;;;;;;;;;;;;;;;;;;5016761;28;19909;-26
2022/06/23 16:31:25;;;;;;;;;;;;;;;;;;5018459;28;19917;-26
2022/06/23 16:33:52;;;;;;;;;;;;;;;;;;5021978;28;19940;-25
2022/06/23 16:36:21;;;;;;;;;;;;;;;;;;5022110;28;19920;-22
2022/06/23 16:38:49;;;;;;;;;;;;;;;;;;5019394;28;19936;-23
2022/06/23 16:41:59;;;;;;;;;;;;;;;;;;5022825;28;19913;-23
2022/06/23 16:44:33;;;;;;;;;;;;;;;;;;5018236;28;19917;-25
2022/06/23 16:47:22;;;;;;;;;;;;;;;;;;5021951;28;19909;-23
2022/06/23 16:49:52;;;;;;;;;;;;;;;;;;5022299;28;19982;-23
2022/06/23 16:52:19;;;;;;;;;;;;;;;;;;5020659;28;19928;-23
2022/06/23 16:54:50;;;;;;;;;;;;;;;;;;5016468;28;20049;-23
2022/06/23 16:57:18;;;;;;;;;;;;;;;;;;5020726;28;19913;-23
2022/06/23 16:59:54;;;;;;;;;;;;;;;;;;5022543;28;19967;-24
2022/06/23 17:02:24;;;;;;;;;;;;;;;;;;5021291;28;19928;-24
2022/06/23 17:07:47;;;;;;;;;;;;;;;;;;5024743;28;20000;-24
2022/06/23 17:10:33;;;;;;;;;;;;;;;;;;5020599;28;19975;-23
2022/06/23 17:16:18;;;;;;;;;;;;;;;;;;5028319;28;20405;-24
2022/06/23 17:18:45;;;;;;;;;;;;;;;;;;5034434;28;19963;-24
2022/06/23 17:21:12;;;;;;;;;;;;;;;;;;5035572;28;19970;-24
2022/06/23 17:23:39;;;;;;;;;;;;;;;;;;5035252;28;19917;-24
2022/06/23 17:26:07;;;;;;;;;;;;;;;;;;5035924;28;19913;-24
2022/06/23 17:28:34;;;;;;;;;;;;;;;;;;5035824;28;19978;-24
2022/06/23 17:31:01;;;;;;;;;;;;;;;;;;5037499;28;20312;-24
2022/06/23 17:33:28;;;;;;;;;;;;;;;;;;5040002;28;19979;-24
2022/06/23 17:35:56;;;;;;;;;;;;;;;;;;5038172;28;19951;-24
2022/06/23 17:43:53;;;;;;;;;;;;;;;;;;5038686;28;20311;-24
2022/06/23 17:46:20;;;;;;;;;;;;;;;;;;5038825;28;19988;-24
2022/06/23 17:48:47;;;;;;;;;;;;;;;;;;5038515;28;19974;-24
2022/06/23 17:51:14;;;;;;;;;;;;;;;;;;5038477;28;19924;-24
2022/06/23 17:53:41;;;;;;;;;;;;;;;;;;5038044;28;20000;-24
2022/06/23 17:56:08;;;;;;;;;;;;;;;;;;5037059;28;19917;-24
2022/06/23 17:58:38;;;;;;;;;;;;;;;;;;5038470;28;19974;-24
2022/06/23 18:01:05;;;;;;;;;;;;;;;;;;5038498;28;19916;-24
2022/06/23 18:03:35;;;;;;;;;;;;;;;;;;5038102;28;20012;-24
2022/06/23 18:06:02;;;;;;;;;;;;;;;;;;5037910;28;19936;-24
2022/06/23 18:08:29;;;;;;;;;;;;;;;;;;5037192;28;19909;-24
2022/06/23 18:10:56;;;;;;;;;;;;;;;;;;5037820;28;19928;-24
2022/06/23 18:13:22;;;;;;;;;;;;;;;;;;5038042;28;20233;-25
2022/06/23 18:15:50;;;;;;;;;;;;;;;;;;5037874;28;19975;-24
2022/06/23 18:18:17;;;;;;;;;;;;;;;;;;5036651;28;20378;-24
2022/06/23 18:20:43;;;;;;;;;;;;;;;;;;5036910;28;19980;-24
2022/06/23 18:23:10;;;;;;;;;;;;;;;;;;5038079;28;19913;-24
2022/06/23 18:25:37;;;;;;;;;;;;;;;;;;5038676;28;19936;-24
2022/06/23 18:28:05;;;;;;;;;;;;;;;;;;5038182;28;19963;-24
2022/06/23 18:30:32;;;;;;;;;;;;;;;;;;5038132;28;20008;-24
2022/06/23 18:32:59;;;;;;;;;;;;;;;;;;5037482;28;20263;-24
2022/06/23 18:35:26;;;;;;;;;;;;;;;;;;5036793;28;20004;-24
2022/06/23 18:37:53;;;;;;;;;;;;;;;;;;5037167;28;19913;-24
2022/06/23 18:40:20;;;;;;;;;;;;;;;;;;5038035;28;19927;-24
2022/06/23 18:42:48;;;;;;;;;;;;;;;;;;5036248;28;19948;-24
2022/06/23 18:45:15;;;;;;;;;;;;;;;;;;5036576;28;19913;-24
2022/06/23 18:47:42;;;;;;;;;;;;;;;;;;5036668;28;19909;-24
2022/06/23 18:50:09;;;;;;;;;;;;;;;;;;5037112;28;19913;-25
2022/06/23 18:52:37;;;;;;;;;;;;;;;;;;5038174;28;19920;-24
2022/06/23 18:55:04;;;;;;;;;;;;;;;;;;5038225;28;19910;-24
2022/06/23 18:57:30;;;;;;;;;;;;;;;;;;5036782;28;19945;-24
2022/06/23 18:59:58;;;;;;;;;;;;;;;;;;5036793;28;20267;-23
2022/06/23 19:02:25;;;;;;;;;;;;;;;;;;5037431;28;19924;-24
2022/06/23 19:04:53;;;;;;;;;;;;;;;;;;5037271;28;19909;-24
2022/06/23 19:07:20;;;;;;;;;;;;;;;;;;5037460;28;19944;-24
2022/06/23 19:09:47;;;;;;;;;;;;;;;;;;5037633;28;20342;-24
2022/06/23 19:12:14;;;;;;;;;;;;;;;;;;5036492;28;19921;-24
2022/06/23 19:14:44;;;;;;;;;;;;;;;;;;5038139;28;19946;-24
2022/06/23 19:17:12;;;;;;;;;;;;;;;;;;5036637;28;19928;-24
2022/06/23 19:19:40;;;;;;;;;;;;;;;;;;5020271;28;19979;-24
2022/06/23 19:22:06;;;;;;;;;;;;;;;;;;5019799;28;19913;-24
2022/06/23 19:24:34;;;;;;;;;;;;;;;;;;5037620;28;19920;-24
2022/06/23 19:27:01;;;;;;;;;;;;;;;;;;5019952;28;19967;-24
2022/06/23 19:29:28;;;;;;;;;;;;;;;;;;5040202;28;19928;-24
2022/06/23 19:32:03;;;;;;;;;;;;;;;;;;5025447;28;20024;-24
2022/06/23 19:37:24;;;;;;;;;;;;;;;;;;5035622;28;20296;-24
2022/06/23 19:45:35;;;;;;;;;;;;;;;;;;5040715;28;20011;-24
2022/06/23 19:48:21;;;;;;;;;;;;;;;;;;5039423;28;19963;-24
2022/06/23 19:53:34;;;;;;;;;;;;;;;;;;5041414;28;19936;-24
2022/06/23 20:04:25;;;;;;;;;;;;;;;;;;4284102;26;20025;-24
2022/06/23 20:07:22;;;;;;;;;;;;;;;;;;5036732;28;20012;-24
2022/06/23 20:18:23;;;;;;;;;;;;;;;;;;5412616;22;20347;-24
2022/06/23 20:20:50;;;;;;;;;;;;;;;;;;5056227;28;19924;-24
2022/06/23 20:23:17;;;;;;;;;;;;;;;;;;5056354;28;19936;-24
2022/06/23 20:25:43;;;;;;;;;;;;;;;;;;5056532;28;19913;-25
2022/06/23 20:28:10;;;;;;;;;;;;;;;;;;5039345;28;20259;-23
2022/06/23 20:30:39;;;;;;;;;;;;;;;;;;5055630;28;19921;-26
2022/06/23 20:33:06;;;;;;;;;;;;;;;;;;5056717;28;19934;-24
2022/06/23 20:35:33;;;;;;;;;;;;;;;;;;5056460;28;19920;-25
2022/06/23 20:38:00;;;;;;;;;;;;;;;;;;5056062;28;19919;-25